Time;durP1;ratioP1;P1;durP2;ratioP2;P2;SDS_P1;SDS_P2;PMS_P1;PMS_P2;Temp;Humidity;BMP_temperature;BMP_pressure;BME280_temperature;BME280_humidity;BME280_pressure;Samples;Min_cycle;Max_cycle;Signal;HPM_P1;HPM_P2
2023/10/02 00:00:42;;;;;;;21.85;10.65;;;22.20;99.90;;;;;;5113444;28;20046;-77
2023/10/02 00:03:11;;;;;;;22.13;10.82;;;22.20;99.90;;;;;;5096970;28;20039;-77
2023/10/02 00:05:50;;;;;;;27.75;10.30;;;22.20;99.90;;;;;;5114124;28;20134;-77
2023/10/02 00:08:36;;;;;;;22.95;11.70;;;22.20;99.90;;;;;;5097003;28;20042;-77
2023/10/02 00:14:18;;;;;;;24.48;11.88;;;22.10;99.90;;;;;;5079792;28;20507;-77
2023/10/02 00:16:58;;;;;;;20.75;11.57;;;22.20;99.90;;;;;;5113740;28;20493;-77
2023/10/02 00:19:39;;;;;;;22.05;11.52;;;22.40;99.90;;;;;;5112917;28;20044;-78
2023/10/02 00:25:07;;;;;;;23.42;13.18;;;22.10;99.90;;;;;;5113937;28;20048;-77
2023/10/02 00:27:34;;;;;;;31.95;13.10;;;22.40;99.90;;;;;;5114222;28;20467;-77
2023/10/02 00:30:00;;;;;;;23.55;11.75;;;22.50;99.90;;;;;;5113378;28;20042;-78
2023/10/02 00:32:29;;;;;;;24.48;12.55;;;22.40;99.90;;;;;;5113920;28;20126;-78
2023/10/02 00:34:58;;;;;;;25.33;13.40;;;22.00;99.90;;;;;;5115503;28;20048;-77
2023/10/02 00:37:43;;;;;;;22.55;11.88;;;22.30;99.90;;;;;;5121458;28;20115;-77
2023/10/02 00:40:30;;;;;;;31.35;13.93;;;21.90;99.90;;;;;;5120665;28;20057;-77
2023/10/02 00:45:49;;;;;;;21.08;12.15;;;22.30;99.90;;;;;;5119195;28;20080;-78
2023/10/02 00:48:28;;;;;;;29.08;14.25;;;21.80;99.90;;;;;;5117653;28;20047;-77
2023/10/02 00:50:59;;;;;;;23.48;12.20;;;21.70;99.90;;;;;;5112456;28;20122;-77
2023/10/02 00:53:41;;;;;;;24.85;13.85;;;22.20;99.90;;;;;;5096808;28;20040;-78
2023/10/02 00:56:23;;;;;;;26.25;12.07;;;21.70;99.90;;;;;;5096512;28;20118;-77
2023/10/02 00:59:14;;;;;;;30.00;14.77;;;21.70;99.90;;;;;;5096602;28;20043;-78
2023/10/02 01:01:43;;;;;;;22.38;12.55;;;21.80;99.90;;;;;;5110921;28;20096;-77
2023/10/02 01:04:09;;;;;;;32.03;13.45;;;22.00;99.90;;;;;;5129636;28;20052;-77
2023/10/02 01:09:28;;;;;;;28.85;13.38;;;22.10;99.90;;;;;;5116672;28;20048;-77
2023/10/02 01:11:58;;;;;;;24.08;13.27;;;22.10;99.90;;;;;;5119529;28;20055;-77
2023/10/02 01:17:14;;;;;;;26.85;12.75;;;22.20;99.90;;;;;;5119894;28;20035;-77
2023/10/02 01:19:57;;;;;;;24.65;13.93;;;21.90;99.90;;;;;;5117603;28;20089;-77
2023/10/02 01:22:36;;;;;;;26.95;14.15;;;21.80;99.90;;;;;;5116998;28;20031;-77
2023/10/02 01:25:16;;;;;;;29.45;14.07;;;21.90;99.90;;;;;;5118508;28;20043;-77
2023/10/02 01:27:46;;;;;;;26.30;14.15;;;22.10;99.90;;;;;;5117334;28;20036;-77
2023/10/02 01:30:16;;;;;;;25.10;13.55;;;21.70;99.90;;;;;;5095923;28;20214;-78
2023/10/02 01:33:17;;;;;;;28.45;13.85;;;21.60;99.90;;;;;;5112185;28;20036;-77
2023/10/02 01:35:48;;;;;;;29.83;15.02;;;21.70;99.90;;;;;;5111841;28;20043;-77
2023/10/02 01:38:35;;;;;;;23.38;12.98;;;21.60;99.90;;;;;;5095132;28;20036;-77
2023/10/02 01:41:10;;;;;;;23.00;13.00;;;21.50;99.90;;;;;;5094274;28;20043;-77
2023/10/02 01:43:44;;;;;;;30.38;14.55;;;21.80;99.90;;;;;;5111586;28;20043;-78
2023/10/02 01:46:11;;;;;;;26.23;12.60;;;21.50;99.90;;;;;;5111522;28;20051;-77
2023/10/02 01:48:40;;;;;;;26.15;14.93;;;21.70;99.90;;;;;;5111948;28;20039;-77
2023/10/02 01:51:16;;;;;;;28.42;14.43;;;22.00;99.90;;;;;;5113969;28;20036;-78
2023/10/02 01:53:43;;;;;;;26.45;14.32;;;21.80;99.90;;;;;;5096998;28;20039;-78
2023/10/02 01:56:11;;;;;;;27.00;14.57;;;21.60;99.90;;;;;;5114188;28;20036;-78
2023/10/02 01:58:40;;;;;;;23.10;13.48;;;21.60;99.90;;;;;;5114243;28;20058;-78
2023/10/02 02:01:09;;;;;;;22.55;12.65;;;22.20;99.90;;;;;;5113935;28;20032;-78
2023/10/02 02:03:55;;;;;;;27.38;14.88;;;22.10;99.90;;;;;;5114447;28;20031;-77
2023/10/02 02:09:01;;;;;;;31.88;14.73;;;21.90;99.90;;;;;;5072056;22;20535;-69
2023/10/02 02:11:30;;;;;;;25.20;14.32;;;21.50;99.90;;;;;;5016835;28;20064;-70
2023/10/02 02:14:02;;;;;;;26.85;15.20;;;21.40;99.90;;;;;;5033385;28;20037;-69
2023/10/02 02:16:33;;;;;;;28.10;14.40;;;21.50;99.90;;;;;;5051311;28;20602;-69
2023/10/02 02:19:05;;;;;;;28.77;15.40;;;21.50;99.90;;;;;;5033334;28;20037;-70
2023/10/02 02:21:32;;;;;;;34.10;17.23;;;21.80;99.90;;;;;;5033487;28;20400;-70
2023/10/02 02:24:07;;;;;;;28.73;15.50;;;21.50;99.90;;;;;;5033623;28;20401;-68
2023/10/02 02:26:39;;;;;;;31.80;16.25;;;22.00;99.90;;;;;;5033540;28;20103;-70
2023/10/02 02:29:23;;;;;;;30.48;15.65;;;21.70;99.90;;;;;;5033608;28;20048;-70
2023/10/02 02:31:55;;;;;;;31.73;16.25;;;22.00;99.90;;;;;;5016804;28;20075;-70
2023/10/02 02:34:23;;;;;;;31.10;17.55;;;22.00;99.90;;;;;;5033432;28;20419;-70
2023/10/02 02:36:50;;;;;;;27.00;15.77;;;21.90;99.90;;;;;;5033174;28;20033;-70
2023/10/02 02:39:17;;;;;;;31.75;16.33;;;21.50;99.90;;;;;;5033075;28;20119;-70
2023/10/02 02:42:32;;;;;;;32.72;16.83;;;21.70;99.90;;;;;;5016860;28;20045;-70
2023/10/02 02:44:43;;;;;;;36.22;18.20;;;21.50;99.90;;;;;;5025425;28;20052;-69
2023/10/02 02:47:12;;;;;;;31.15;17.27;;;22.00;99.90;;;;;;5033148;28;20037;-70
2023/10/02 02:49:50;;;;;;;34.17;18.20;;;21.70;99.90;;;;;;5016339;28;20051;-70
2023/10/02 02:52:26;;;;;;;32.40;16.38;;;22.00;99.90;;;;;;5033200;28;20079;-69
2023/10/02 02:55:05;;;;;;;30.23;17.02;;;22.00;99.90;;;;;;5033055;28;20080;-69
2023/10/02 02:57:38;;;;;;;32.90;18.00;;;21.60;99.90;;;;;;5033120;28;20087;-70
2023/10/02 03:02:52;;;;;;;31.48;16.98;;;21.70;99.90;;;;;;5036590;28;19982;-69
2023/10/02 03:05:22;;;;;;;34.10;17.63;;;21.60;99.90;;;;;;5036598;28;20051;-70
2023/10/02 03:07:56;;;;;;;34.75;19.15;;;21.80;99.90;;;;;;5036358;28;20098;-69
2023/10/02 03:10:23;;;;;;;35.92;18.45;;;21.70;99.90;;;;;;5036367;28;20627;-69
2023/10/02 03:12:50;;;;;;;39.97;21.00;;;21.70;99.90;;;;;;5036399;28;20036;-70
2023/10/02 03:15:20;;;;;;;38.03;18.92;;;21.70;99.90;;;;;;5019803;28;20041;-70
2023/10/02 03:17:47;;;;;;;32.38;18.23;;;21.60;99.90;;;;;;5036190;28;20103;-69
2023/10/02 03:20:22;;;;;;;35.72;17.63;;;21.50;99.90;;;;;;5019876;28;20044;-70
2023/10/02 03:22:57;;;;;;;37.38;18.35;;;21.70;99.90;;;;;;5019874;28;20056;-70
2023/10/02 03:25:41;;;;;;;34.80;18.40;;;21.70;99.90;;;;;;5019824;28;20047;-69
2023/10/02 03:28:16;;;;;;;36.15;18.40;;;21.50;99.90;;;;;;5036085;28;20033;-69
2023/10/02 03:30:47;;;;;;;30.45;17.55;;;21.10;99.90;;;;;;5019470;28;20033;-70
2023/10/02 03:33:18;;;;;;;31.50;16.65;;;21.30;99.90;;;;;;5019483;28;20565;-70
2023/10/02 03:36:07;;;;;;;34.20;17.40;;;21.50;99.90;;;;;;5019811;28;20393;-70
2023/10/02 03:38:35;;;;;;;32.30;16.85;;;21.30;99.90;;;;;;5019416;28;20101;-70
2023/10/02 03:41:03;;;;;;;32.08;16.45;;;21.30;99.90;;;;;;5019604;28;20036;-71
2023/10/02 03:43:34;;;;;;;34.25;18.80;;;21.20;99.90;;;;;;5036175;28;20476;-70
2023/10/02 03:46:06;;;;;;;29.33;16.27;;;21.10;99.90;;;;;;5035835;28;20041;-70
2023/10/02 03:48:36;;;;;;;35.63;18.50;;;21.60;99.90;;;;;;5035644;28;20120;-70
2023/10/02 03:51:06;;;;;;;36.63;19.50;;;21.40;99.90;;;;;;5019086;28;20044;-70
2023/10/02 03:53:34;;;;;;;37.00;20.05;;;21.50;99.90;;;;;;5035628;28;20087;-70
2023/10/02 03:56:36;;;;;;;35.60;17.60;;;21.60;99.90;;;;;;5035972;28;20386;-70
2023/10/02 03:58:52;;;;;;;35.35;17.98;;;21.10;99.90;;;;;;5035436;28;20044;-70
2023/10/02 04:01:31;;;;;;;32.95;16.85;;;21.60;99.90;;;;;;5019147;28;20055;-70
2023/10/02 04:06:36;;;;;;;38.53;19.45;;;21.60;99.90;;;;;;5035247;28;20060;-70
2023/10/02 04:11:42;;;;;;;32.88;17.13;;;21.30;99.90;;;;;;5035518;28;20045;-70
2023/10/02 04:14:17;;;;;;;30.40;16.05;;;21.20;99.90;;;;;;5035382;28;20045;-70
2023/10/02 04:16:47;;;;;;;35.00;17.80;;;21.70;99.90;;;;;;5035196;28;20124;-70
2023/10/02 04:19:23;;;;;;;35.83;18.20;;;21.70;99.90;;;;;;5035141;28;20075;-70
2023/10/02 04:21:52;;;;;;;36.25;18.90;;;21.80;99.90;;;;;;5035208;28;20565;-70
2023/10/02 04:24:23;;;;;;;32.22;18.02;;;21.60;99.90;;;;;;5035330;28;20094;-70
2023/10/02 04:27:14;;;;;;;30.83;16.33;;;21.70;99.90;;;;;;5035026;28;20123;-70
2023/10/02 04:29:48;;;;;;;32.08;18.30;;;21.80;99.90;;;;;;5018282;28;20037;-71
2023/10/02 04:32:19;;;;;;;33.55;17.63;;;21.90;99.90;;;;;;5034975;28;20562;-70
2023/10/02 04:34:50;;;;;;;33.75;17.42;;;21.50;99.90;;;;;;5034886;28;20159;-71
2023/10/02 04:37:19;;;;;;;30.77;17.73;;;21.50;99.90;;;;;;5034890;28;20037;-71
2023/10/02 04:42:25;;;;;;;40.30;18.80;;;21.20;99.90;;;;;;5035063;28;20055;-71
2023/10/02 04:44:56;;;;;;;35.42;18.23;;;21.40;99.90;;;;;;5018485;28;20067;-71
2023/10/02 04:47:23;;;;;;;31.45;18.25;;;21.50;99.90;;;;;;5034647;28;20559;-69
2023/10/02 04:55:24;;;;;;;30.58;18.45;;;21.40;99.90;;;;;;5052475;28;20080;-70
2023/10/02 04:57:54;;;;;;;30.67;16.95;;;21.70;99.90;;;;;;5017999;28;20040;-70
2023/10/02 05:00:28;;;;;;;32.92;17.65;;;21.60;99.90;;;;;;5034224;28;20094;-70
2023/10/02 05:03:17;;;;;;;35.65;17.92;;;21.70;99.90;;;;;;5034762;28;20411;-70
2023/10/02 05:05:48;;;;;;;32.25;17.77;;;21.20;99.90;;;;;;5017819;28;20079;-70
2023/10/02 05:08:21;;;;;;;30.52;16.33;;;21.70;99.90;;;;;;5034023;28;20047;-70
2023/10/02 05:11:05;;;;;;;35.30;17.77;;;21.20;99.90;;;;;;5034513;28;20426;-70
2023/10/02 05:16:15;;;;;;;30.52;16.25;;;21.20;99.90;;;;;;5034344;28;20408;-70
2023/10/02 05:18:47;;;;;;;33.40;17.73;;;21.20;99.90;;;;;;5033958;28;20029;-70
2023/10/02 05:21:17;;;;;;;32.20;17.08;;;21.30;99.90;;;;;;5034079;28;20041;-70
2023/10/02 05:24:02;;;;;;;32.10;17.50;;;21.10;99.90;;;;;;5051463;28;20049;-70
2023/10/02 05:26:39;;;;;;;40.00;19.17;;;21.20;99.90;;;;;;5033925;28;20045;-70
2023/10/02 05:29:07;;;;;;;34.78;17.77;;;21.00;99.90;;;;;;5033710;28;20574;-71
2023/10/02 05:31:41;;;;;;;33.15;18.08;;;21.20;99.90;;;;;;5017249;28;20053;-70
2023/10/02 05:34:23;;;;;;;35.10;18.63;;;21.40;99.90;;;;;;5033960;28;20041;-70
2023/10/02 05:37:11;;;;;;;28.42;16.80;;;20.90;99.90;;;;;;5033789;28;20040;-70
2023/10/02 05:39:40;;;;;;;37.15;18.17;;;21.40;99.90;;;;;;5017379;28;20102;-70
2023/10/02 05:42:15;;;;;;;33.50;17.58;;;21.60;99.90;;;;;;5034113;28;20392;-70
2023/10/02 05:44:45;;;;;;;34.80;18.60;;;21.40;99.90;;;;;;5017255;28;20068;-71
2023/10/02 05:47:17;;;;;;;31.00;18.02;;;21.20;99.90;;;;;;5033924;28;20131;-71
2023/10/02 05:49:47;;;;;;;35.42;18.35;;;21.10;99.90;;;;;;5033432;28;20041;-70
2023/10/02 05:52:14;;;;;;;30.35;17.77;;;21.20;99.90;;;;;;5033771;28;20067;-70
2023/10/02 05:54:47;;;;;;;33.17;17.25;;;21.10;99.90;;;;;;5033569;28;20045;-71
2023/10/02 05:57:13;;;;;;;33.58;17.65;;;21.80;99.90;;;;;;5033814;28;20033;-70
2023/10/02 05:59:45;;;;;;;30.88;17.70;;;21.40;99.90;;;;;;5050965;28;20389;-70
2023/10/02 06:02:12;;;;;;;34.53;18.38;;;21.40;99.90;;;;;;5035400;28;20140;-70
2023/10/02 06:04:38;;;;;;;36.15;19.02;;;21.20;99.90;;;;;;5021595;28;20076;-71
2023/10/02 06:07:09;;;;;;;35.13;18.15;;;21.50;99.90;;;;;;5035365;28;20048;-70
2023/10/02 06:09:43;;;;;;;34.90;18.73;;;21.50;99.90;;;;;;5032540;28;20084;-70
2023/10/02 06:12:11;;;;;;;32.50;18.65;;;21.20;99.90;;;;;;5026063;28;20037;-70
2023/10/02 06:14:42;;;;;;;34.10;17.13;;;21.20;99.90;;;;;;5029568;28;20047;-71
2023/10/02 06:17:11;;;;;;;36.83;18.95;;;21.70;99.90;;;;;;5030009;28;20060;-72
2023/10/02 06:19:44;;;;;;;33.40;18.83;;;21.50;99.90;;;;;;5029529;28;20033;-71
2023/10/02 06:22:14;;;;;;;37.55;19.92;;;21.10;99.90;;;;;;5029740;28;20048;-71
2023/10/02 06:24:43;;;;;;;33.25;17.05;;;21.30;99.90;;;;;;5013853;28;20087;-71
2023/10/02 06:27:17;;;;;;;31.27;18.67;;;21.40;99.90;;;;;;5013207;28;20526;-72
2023/10/02 06:29:44;;;;;;;31.13;17.48;;;21.70;99.90;;;;;;5029354;28;20115;-71
2023/10/02 06:32:14;;;;;;;33.20;17.10;;;21.40;99.90;;;;;;5032945;28;20041;-70
2023/10/02 06:34:43;;;;;;;44.80;19.60;;;21.10;99.90;;;;;;5025397;28;20512;-71
2023/10/02 06:37:16;;;;;;;31.15;17.63;;;21.00;99.90;;;;;;5050173;28;20047;-71
2023/10/02 06:39:47;;;;;;;36.30;19.63;;;21.50;99.90;;;;;;5030163;28;20079;-72
2023/10/02 06:42:19;;;;;;;32.85;16.55;;;21.00;99.90;;;;;;5051261;28;20408;-71
2023/10/02 06:44:54;;;;;;;34.78;18.25;;;21.20;99.90;;;;;;5026475;28;20090;-71
2023/10/02 06:47:30;;;;;;;34.90;17.95;;;21.60;99.90;;;;;;5035148;28;20045;-72
2023/10/02 06:50:03;;;;;;;28.63;16.33;;;21.50;99.90;;;;;;5031670;28;20041;-71
2023/10/02 06:52:32;;;;;;;;;;;21.70;99.90;;;;;;5028193;28;20045;-70
2023/10/02 06:55:01;;;;;;;29.35;17.00;;;21.40;99.90;;;;;;5029392;28;20312;-70
2023/10/02 06:57:27;;;;;;;33.40;18.27;;;21.20;99.90;;;;;;5026565;28;20124;-70
2023/10/02 06:59:53;;;;;;;32.20;17.25;;;21.30;99.90;;;;;;5026469;28;20085;-70
2023/10/02 07:02:26;;;;;;;27.55;15.63;;;21.50;99.90;;;;;;5008202;28;20553;-70
2023/10/02 07:04:54;;;;;;;33.10;18.13;;;21.70;99.90;;;;;;5005208;28;20709;-71
2023/10/02 07:07:25;;;;;;;31.27;17.48;;;21.30;99.90;;;;;;5034362;28;20476;-71
2023/10/02 07:10:00;;;;;;;34.38;17.65;;;21.80;99.90;;;;;;5032635;28;20504;-70
2023/10/02 07:12:27;;;;;;;31.67;17.02;;;21.80;99.90;;;;;;5035374;28;20103;-70
2023/10/02 07:15:10;;;;;;;33.13;19.02;;;21.60;99.90;;;;;;5018533;28;20553;-70
2023/10/02 07:17:47;;;;;;;33.85;17.85;;;21.50;99.90;;;;;;5040964;28;20036;-71
2023/10/02 07:20:23;;;;;;;33.15;17.25;;;22.00;99.90;;;;;;5052441;28;20041;-70
2023/10/02 07:22:49;;;;;;;34.92;18.95;;;21.90;99.90;;;;;;5035806;28;20037;-70
2023/10/02 07:25:20;;;;;;;28.85;17.10;;;21.90;99.90;;;;;;5038503;28;20135;-71
2023/10/02 07:27:48;;;;;;;38.45;20.42;;;21.80;99.90;;;;;;5035317;28;20041;-71
2023/10/02 07:30:24;;;;;;;36.20;18.90;;;22.00;99.90;;;;;;5034842;28;20040;-70
2023/10/02 07:32:53;;;;;;;33.03;17.10;;;22.40;99.90;;;;;;5034847;28;20523;-71
2023/10/02 07:35:21;;;;;;;33.53;17.48;;;21.90;99.90;;;;;;5034427;28;20393;-70
2023/10/02 07:37:58;;;;;;;36.50;18.90;;;22.00;99.90;;;;;;5034113;28;20120;-76
2023/10/02 07:40:46;;;;;;;31.17;17.70;;;22.00;99.90;;;;;;5035020;28;20037;-73
2023/10/02 07:43:18;;;;;;;35.33;18.13;;;22.70;99.90;;;;;;5035970;28;20037;-74
2023/10/02 07:46:01;;;;;;;36.78;17.98;;;22.40;99.90;;;;;;5034644;28;20064;-74
2023/10/02 07:48:36;;;;;;;31.52;18.90;;;22.30;99.90;;;;;;5035437;28;20454;-73
2023/10/02 07:51:02;;;;;;;33.42;18.38;;;22.60;99.90;;;;;;5035847;28;20416;-74
2023/10/02 07:53:41;;;;;;;35.67;18.58;;;22.70;99.90;;;;;;5035419;28;20048;-74
2023/10/02 07:56:11;;;;;;;35.38;18.67;;;22.40;99.90;;;;;;5035467;28;20072;-74
2023/10/02 07:58:37;;;;;;;32.60;19.08;;;22.90;99.90;;;;;;5035463;28;20040;-74
2023/10/02 08:01:11;;;;;;;35.33;19.20;;;22.80;99.90;;;;;;5035560;28;20045;-74
2023/10/02 08:03:43;;;;;;;33.08;19.33;;;22.90;99.90;;;;;;5019106;28;20167;-74
2023/10/02 08:06:21;;;;;;;35.67;19.10;;;23.00;99.90;;;;;;5035348;28;20147;-73
2023/10/02 08:11:50;;;;;;;35.03;19.10;;;22.60;99.90;;;;;;5092107;28;20044;-77
2023/10/02 08:14:41;;;;;;;38.60;19.35;;;22.60;99.90;;;;;;5060465;28;20085;-77
2023/10/02 08:19:56;;;;;;;42.95;19.52;;;22.60;99.90;;;;;;5071936;28;20072;-77
2023/10/02 08:22:23;;;;;;;46.83;20.70;;;22.80;99.90;;;;;;5072168;28;20382;-77
2023/10/02 08:24:52;;;;;;;36.88;19.83;;;23.10;99.90;;;;;;5055268;28;20090;-77
2023/10/02 08:27:18;;;;;;;36.40;19.85;;;23.10;99.90;;;;;;5071974;28;20450;-77
2023/10/02 08:29:44;;;;;;;41.03;20.08;;;23.20;99.90;;;;;;5071401;28;20045;-77
2023/10/02 08:32:11;;;;;;;43.05;20.20;;;23.10;99.90;;;;;;5071550;28;20468;-77
2023/10/02 08:34:36;;;;;;;38.67;20.95;;;23.20;99.90;;;;;;5071538;28;20066;-78
2023/10/02 08:37:05;;;;;;;33.63;18.67;;;23.60;99.90;;;;;;5071499;28;20494;-77
2023/10/02 08:39:38;;;;;;;43.63;21.35;;;23.00;99.90;;;;;;5071172;28;20145;-77
2023/10/02 08:42:11;;;;;;;37.05;21.13;;;23.10;99.90;;;;;;5055109;28;20369;-77
2023/10/02 08:44:38;;;;;;;40.95;20.10;;;23.10;99.90;;;;;;5071612;28;20498;-77
2023/10/02 08:47:06;;;;;;;41.97;21.55;;;23.10;99.90;;;;;;5071257;28;20040;-77
2023/10/02 08:49:34;;;;;;;42.08;20.73;;;23.30;99.90;;;;;;5071261;28;20119;-77
2023/10/02 08:52:03;;;;;;;46.45;22.13;;;23.30;99.90;;;;;;5071552;28;20519;-77
2023/10/02 08:54:31;;;;;;;34.15;19.45;;;23.90;99.90;;;;;;5054433;28;20040;-77
2023/10/02 08:57:12;;;;;;;41.65;21.50;;;23.60;99.90;;;;;;5071323;28;20036;-77
2023/10/02 08:59:41;;;;;;;42.30;21.23;;;24.20;99.90;;;;;;5070498;28;20271;-77
2023/10/02 09:02:17;;;;;;;43.97;23.27;;;23.90;99.90;;;;;;5054522;28;20028;-77
2023/10/02 09:04:57;;;;;;;37.35;21.40;;;24.10;99.90;;;;;;5071269;28;20048;-77
2023/10/02 09:08:01;;;;;;;42.72;22.70;;;23.80;99.90;;;;;;5054214;28;20128;-77
2023/10/02 09:10:24;;;;;;;49.55;22.88;;;23.50;99.90;;;;;;5071406;28;20044;-77
2023/10/02 09:13:24;;;;;;;41.35;21.80;;;24.20;99.90;;;;;;5074829;28;20028;-78
2023/10/02 09:15:53;;;;;;;44.95;21.52;;;24.10;99.90;;;;;;5075367;28;20052;-77
2023/10/02 09:19:07;;;;;;;36.97;19.77;;;23.80;99.90;;;;;;5091512;28;20059;-77
2023/10/02 09:21:22;;;;;;;43.10;22.20;;;24.20;99.90;;;;;;5090869;28;20044;-77
2023/10/02 09:23:51;;;;;;;40.80;21.83;;;24.30;99.90;;;;;;5073912;28;20032;-77
2023/10/02 09:26:17;;;;;;;40.13;20.80;;;23.70;99.90;;;;;;5090443;28;20061;-77
2023/10/02 09:29:06;;;;;;;42.92;21.67;;;24.30;99.90;;;;;;5082462;28;20046;-77
2023/10/02 09:31:36;;;;;;;46.03;21.55;;;24.20;99.90;;;;;;5061215;28;20032;-77
2023/10/02 09:34:10;;;;;;;42.72;22.98;;;24.10;99.90;;;;;;5072521;28;20123;-77
2023/10/02 09:36:47;;;;;;;38.92;19.83;;;24.10;99.90;;;;;;5089649;28;20446;-77
2023/10/02 09:39:32;;;;;;;44.33;21.60;;;24.00;99.90;;;;;;5073676;28;20071;-77
2023/10/02 09:42:06;;;;;;;41.90;23.00;;;24.10;99.90;;;;;;5090199;28;20077;-78
2023/10/02 09:44:45;;;;;;;39.22;20.33;;;23.80;99.90;;;;;;5073968;28;20040;-77
2023/10/02 09:47:12;;;;;;;39.75;21.20;;;24.40;99.90;;;;;;5089610;28;20039;-77
2023/10/02 09:50:26;;;;;;;40.85;21.50;;;24.40;99.90;;;;;;5088675;28;20040;-77
2023/10/02 09:53:10;;;;;;;42.08;20.67;;;24.20;99.90;;;;;;5088929;28;20427;-76
2023/10/02 09:55:50;;;;;;;42.55;21.23;;;24.30;99.90;;;;;;5089895;28;20051;-77
2023/10/02 09:58:26;;;;;;;39.92;21.25;;;24.60;99.90;;;;;;5090521;28;20032;-77
2023/10/02 10:03:50;;;;;;;39.58;21.60;;;24.60;99.90;;;;;;5088138;28;20062;-77
2023/10/02 10:06:17;;;;;;;40.22;20.45;;;24.60;99.90;;;;;;5108445;28;20095;-77
2023/10/02 10:11:42;;;;;;;38.78;20.98;;;24.20;99.90;;;;;;5096584;28;20052;-77
2023/10/02 10:14:36;;;;;;;43.25;20.88;;;24.60;99.90;;;;;;5095061;28;20062;-78
2023/10/02 10:17:12;;;;;;;35.83;19.55;;;24.90;99.90;;;;;;5095476;28;20047;-77
2023/10/02 10:19:41;;;;;;;41.15;20.88;;;24.10;99.90;;;;;;5095106;28;20048;-77
2023/10/02 10:22:34;;;;;;;42.85;20.45;;;24.80;99.90;;;;;;5094517;28;20039;-77
2023/10/02 10:27:39;;;;;;;37.50;19.30;;;25.40;99.90;;;;;;5095373;28;20047;-77
2023/10/02 10:30:28;;;;;;;36.65;19.65;;;;;;;;;;5076995;28;20051;-76
2023/10/02 10:33:27;;;;;;;42.03;22.25;;;;;;;;;;5076837;28;20704;-76
2023/10/02 10:35:55;;;;;;;35.00;19.58;;;;;;;;;;5093489;28;20044;-78
2023/10/02 10:38:36;;;;;;;36.35;20.95;;;;;;;;;;5076764;28;20068;-75
2023/10/02 10:41:15;;;;;;;31.35;17.50;;;;;;;;;;5076504;28;20402;-75
2023/10/02 10:43:44;;;;;;;37.50;19.75;;;;;;;;;;5094017;28;20073;-76
2023/10/02 10:46:27;;;;;;;37.17;19.15;;;;;;;;;;5074612;28;20028;-76
2023/10/02 10:49:07;;;;;;;32.63;18.27;;;;;;;;;;5093601;28;20048;-75
2023/10/02 10:51:33;;;;;;;37.80;18.15;;;;;;;;;;5091079;28;20529;-76
2023/10/02 10:54:12;;;;;;;33.03;18.83;;;;;;;;;;5090070;28;20046;-76
2023/10/02 10:56:45;;;;;;;32.55;17.35;;;;;;;;;;5092598;28;20040;-76
2023/10/02 10:59:24;;;;;;;34.25;16.38;;;;;;;;;;5075308;28;20040;-76
2023/10/02 11:02:36;;;;;;;32.53;17.48;;;25.50;99.90;;;;;;5072806;28;20079;-76
2023/10/02 11:04:40;;;;;;;25.73;15.60;;;25.50;99.90;;;;;;5078517;28;20075;-76
2023/10/02 11:07:25;;;;;;;41.28;18.63;;;25.30;99.90;;;;;;5075987;28;20036;-76
2023/10/02 11:10:16;;;;;;;33.25;16.70;;;25.20;99.90;;;;;;5075372;28;20047;-76
2023/10/02 11:12:56;;;;;;;33.00;16.48;;;25.30;99.90;;;;;;5093601;28;20044;-76
2023/10/02 11:18:20;;;;;;;31.95;14.55;;;25.60;99.90;;;;;;5092115;28;20077;-76
2023/10/02 11:20:57;;;;;;;27.00;14.80;;;25.30;99.90;;;;;;5090474;28;20048;-76
2023/10/02 11:23:37;;;;;;;25.63;15.10;;;25.60;99.90;;;;;;5091186;28;20132;-76
2023/10/02 11:26:11;;;;;;;31.00;15.93;;;25.50;99.90;;;;;;5092424;28;20075;-76
2023/10/02 11:28:37;;;;;;;31.98;16.67;;;25.70;99.90;;;;;;5089135;28;20044;-76
2023/10/02 11:31:45;;;;;;;32.13;15.90;;;25.60;99.90;;;;;;5089367;28;20042;-77
2023/10/02 11:34:11;;;;;;;30.35;17.58;;;25.60;99.90;;;;;;5062592;28;20131;-74
2023/10/02 11:36:39;;;;;;;34.20;17.20;;;25.30;99.90;;;;;;5078841;28;20070;-76
2023/10/02 11:39:19;;;;;;;29.80;15.68;;;25.30;99.90;;;;;;5080794;28;20032;-77
2023/10/02 11:41:46;;;;;;;27.15;16.10;;;25.80;99.90;;;;;;5060154;28;20089;-77
2023/10/02 11:44:13;;;;;;;29.77;15.52;;;25.70;99.90;;;;;;5079945;28;20040;-76
2023/10/02 11:46:47;;;;;;;29.30;15.52;;;25.40;99.90;;;;;;5083402;28;20047;-76
2023/10/02 11:49:13;;;;;;;31.05;17.70;;;25.70;99.90;;;;;;5062369;28;20048;-76
2023/10/02 11:51:40;;;;;;;27.42;15.68;;;25.60;99.90;;;;;;5061938;28;20070;-76
2023/10/02 11:54:09;;;;;;;31.30;16.20;;;25.50;99.90;;;;;;5059137;28;20042;-76
2023/10/02 11:56:35;;;;;;;33.33;17.73;;;25.80;99.90;;;;;;5059116;28;20086;-76
2023/10/02 11:59:02;;;;;;;39.92;18.60;;;25.30;99.90;;;;;;5075956;28;20035;-76
2023/10/02 12:01:28;;;;;;;32.50;16.70;;;25.60;99.90;;;;;;5079714;28;20158;-77
2023/10/02 12:03:57;;;;;;;33.67;17.70;;;25.70;99.90;;;;;;5063144;28;20074;-76
2023/10/02 12:06:28;;;;;;;30.42;17.23;;;25.80;99.90;;;;;;5078962;28;20411;-76
2023/10/02 12:08:58;;;;;;;32.90;17.42;;;26.10;99.90;;;;;;5083073;28;20043;-76
2023/10/02 12:11:28;;;;;;;32.55;18.65;;;26.60;99.90;;;;;;5090521;28;20043;-77
2023/10/02 12:13:54;;;;;;;32.33;18.80;;;25.90;99.90;;;;;;5074784;28;20040;-77
2023/10/02 12:16:21;;;;;;;31.02;18.13;;;25.90;99.90;;;;;;5091122;28;20028;-77
2023/10/02 12:18:49;;;;;;;33.38;17.92;;;25.80;99.90;;;;;;5091684;28;20558;-77
2023/10/02 12:21:16;;;;;;;36.35;19.45;;;26.10;99.90;;;;;;5090234;28;20044;-77
2023/10/02 12:23:43;;;;;;;34.05;18.08;;;25.80;99.90;;;;;;5074704;28;20077;-76
2023/10/02 12:26:13;;;;;;;32.67;18.40;;;26.10;99.90;;;;;;5091349;28;20075;-76
2023/10/02 12:28:39;;;;;;;31.55;16.95;;;25.80;99.90;;;;;;5074869;28;20040;-77
2023/10/02 12:31:10;;;;;;;38.17;20.55;;;25.80;99.90;;;;;;5092301;28;20047;-76
2023/10/02 12:33:38;;;;;;;31.17;16.35;;;26.00;99.90;;;;;;5090920;28;20040;-77
2023/10/02 12:36:19;;;;;;;33.83;16.50;;;26.10;99.90;;;;;;5090957;28;20054;-77
2023/10/02 12:38:47;;;;;;;29.17;15.40;;;26.00;99.90;;;;;;5074068;28;20036;-77
2023/10/02 12:41:20;;;;;;;30.02;15.48;;;25.80;99.90;;;;;;5090784;28;20040;-77
2023/10/02 12:43:55;;;;;;;28.17;15.93;;;25.60;99.90;;;;;;5090616;28;20402;-76
2023/10/02 12:46:25;;;;;;;30.27;13.60;;;26.00;99.90;;;;;;5090904;28;20812;-77
2023/10/02 12:48:51;;;;;;;30.27;15.15;;;26.10;99.90;;;;;;5074570;28;20086;-76
2023/10/02 12:51:17;;;;;;;24.35;13.80;;;27.00;99.90;;;;;;5090341;28;20064;-77
2023/10/02 12:53:44;;;;;;;26.95;14.40;;;26.10;99.90;;;;;;5091235;28;20515;-76
2023/10/02 12:56:18;;;;;;;27.15;15.52;;;26.20;99.90;;;;;;5090631;28;20141;-76
2023/10/02 12:58:44;;;;;;;28.80;16.73;;;26.20;99.90;;;;;;5091117;28;20503;-77
2023/10/02 13:01:13;;;;;;;28.83;15.55;;;26.00;99.90;;;;;;5091432;28;20054;-77
2023/10/02 13:03:42;;;;;;;32.28;16.17;;;26.10;99.90;;;;;;5089458;28;20044;-77
2023/10/02 13:06:11;;;;;;;30.00;15.52;;;26.20;99.90;;;;;;5090610;28;20071;-77
2023/10/02 13:08:41;;;;;;;32.53;15.95;;;26.20;99.90;;;;;;5089161;28;20042;-76
2023/10/02 13:11:12;;;;;;;28.55;13.75;;;26.30;99.90;;;;;;5090417;28;20044;-77
2023/10/02 13:13:38;;;;;;;25.33;13.40;;;26.20;99.90;;;;;;5090286;28;20131;-76
2023/10/02 13:16:04;;;;;;;27.85;14.30;;;26.40;99.90;;;;;;5090875;28;20119;-77
2023/10/02 13:18:30;;;;;;;27.27;15.18;;;26.50;99.90;;;;;;5090326;28;20535;-76
2023/10/02 13:20:58;;;;;;;30.77;15.45;;;26.10;99.90;;;;;;5073351;28;20115;-75
2023/10/02 13:23:25;;;;;;;28.17;14.98;;;26.40;99.90;;;;;;5089935;28;20044;-75
2023/10/02 13:25:51;;;;;;;27.25;14.73;;;26.40;99.90;;;;;;5073074;28;20565;-75
2023/10/02 13:28:17;;;;;;;26.67;15.45;;;27.40;99.90;;;;;;5088826;28;20047;-77
2023/10/02 13:30:42;;;;;;;26.15;14.57;;;26.60;99.90;;;;;;5071969;28;20048;-77
2023/10/02 13:33:08;;;;;;;28.17;14.25;;;26.60;99.90;;;;;;5089496;28;20047;-77
2023/10/02 13:35:44;;;;;;;28.75;15.07;;;26.30;99.90;;;;;;5090401;28;20036;-77
2023/10/02 13:38:10;;;;;;;28.98;16.05;;;26.40;99.90;;;;;;5072359;28;20111;-76
2023/10/02 13:40:38;;;;;;;25.83;13.85;;;26.40;99.90;;;;;;5073424;28;20032;-77
2023/10/02 13:43:05;;;;;;;26.50;15.07;;;26.50;99.90;;;;;;5090488;28;20115;-78
2023/10/02 13:45:31;;;;;;;22.45;13.60;;;26.40;99.90;;;;;;5059356;28;20032;-77
2023/10/02 13:47:57;;;;;;;29.92;14.07;;;26.30;99.90;;;;;;5091071;28;20502;-78
2023/10/02 13:50:23;;;;;;;29.55;14.77;;;27.00;99.90;;;;;;5088321;28;20036;-77
2023/10/02 13:52:53;;;;;;;27.60;15.45;;;26.50;99.90;;;;;;5089414;28;20115;-77